Time;durP1;ratioP1;P1;durP2;ratioP2;P2;SDS_P1;SDS_P2;PMS_P1;PMS_P2;Temp;Humidity;BMP_temperature;BMP_pressure;BME280_temperature;BME280_humidity;BME280_pressure;Samples;Min_cycle;Max_cycle;Signal;HPM_P1;HPM_P2
2021/01/27 00:01:12;;;;;;;25.60;17.10;;;;;;;9.61;45.48;101184.09;4974541;28;97714;-75
2021/01/27 00:03:40;;;;;;;23.67;15.88;;;;;;;9.54;45.50;101176.66;4972404;28;97789;-74
2021/01/27 00:06:08;;;;;;;21.42;14.50;;;;;;;9.45;45.12;101182.19;4970385;28;97626;-75
2021/01/27 00:08:36;;;;;;;21.88;16.38;;;;;;;9.40;44.83;101175.75;4968148;28;99918;-73
2021/01/27 00:11:04;;;;;;;22.88;15.05;;;;;;;9.34;45.60;101172.75;4975241;28;98122;-76
2021/01/27 00:13:31;;;;;;;20.50;14.38;;;;;;;9.28;45.22;101169.75;4970680;28;97165;-74
2021/01/27 00:15:59;;;;;;;29.73;21.25;;;;;;;9.41;45.19;101169.72;4966309;28;97578;-73
2021/01/27 00:18:27;;;;;;;30.35;21.80;;;;;;;9.49;44.98;101171.09;4971455;28;98946;-73
2021/01/27 00:20:54;;;;;;;32.45;21.48;;;;;;;9.52;44.69;101160.81;4967614;28;98282;-73
2021/01/27 00:23:22;;;;;;;31.47;22.33;;;;;;;9.60;44.76;101169.16;4964680;28;97828;-74
2021/01/27 00:25:50;;;;;;;31.87;21.00;;;;;;;9.66;45.10;101167.81;4973306;28;97997;-74
2021/01/27 00:28:18;;;;;;;26.17;19.50;;;;;;;9.72;45.35;101165.59;4965760;28;97690;-74
2021/01/27 00:30:45;;;;;;;31.05;20.83;;;;;;;9.81;45.16;101162.63;4969038;28;98288;-73
2021/01/27 00:33:15;;;;;;;30.50;20.53;;;;;;;9.85;44.75;101160.28;4958720;28;97307;-75
2021/01/27 00:35:46;;;;;;;31.35;20.67;;;;;;;9.90;44.99;101145.75;4970936;28;96838;-75
2021/01/27 00:38:16;;;;;;;22.70;15.15;;;;;;;9.86;44.63;101143.72;4965400;28;96958;-74
2021/01/27 00:40:43;;;;;;;21.95;14.68;;;;;;;9.80;44.72;101145.97;4968644;28;97863;-74
2021/01/27 00:43:12;;;;;;;31.25;20.35;;;;;;;9.91;44.45;101147.53;4966925;28;97331;-73
2021/01/27 00:45:39;;;;;;;30.80;20.23;;;;;;;9.96;44.32;101138.22;4962569;28;96826;-74
2021/01/27 00:48:07;;;;;;;28.25;21.00;;;;;;;10.02;44.03;101132.44;4967168;28;97904;-74
2021/01/27 00:50:35;;;;;;;31.00;20.23;;;;;;;10.05;44.66;101132.66;4969918;28;97801;-74
2021/01/27 00:53:04;;;;;;;28.25;20.48;;;;;;;10.09;43.79;101132.06;4958345;28;97835;-74
2021/01/27 00:55:38;;;;;;;24.77;15.75;;;;;;;10.01;44.60;101125.41;4968013;28;99258;-74
2021/01/27 00:58:06;;;;;;;27.65;19.17;;;;;;;10.05;44.73;101124.78;4966620;28;99217;-75
2021/01/27 01:00:36;;;;;;;20.92;13.85;;;;;;;9.95;44.50;101119.75;4969806;28;98240;-74
2021/01/27 01:03:09;;;;;;;23.20;14.98;;;;;;;9.91;44.79;101123.91;4965970;28;97410;-74
2021/01/27 01:05:54;;;;;;;26.77;19.40;;;;;;;9.98;44.14;101133.09;4965185;28;97231;-74
2021/01/27 01:08:21;;;;;;;31.37;19.73;;;;;;;10.01;44.30;101141.13;4973093;28;99434;-73
2021/01/27 01:10:54;;;;;;;31.00;20.52;;;;;;;9.98;44.22;101131.34;4967694;28;97955;-72
2021/01/27 01:13:24;;;;;;;30.38;20.33;;;;;;;9.99;44.17;101133.19;4969224;28;97119;-73
2021/01/27 01:16:11;;;;;;;29.40;20.20;;;;;;;10.01;43.83;101133.28;4965387;28;97057;-73
2021/01/27 01:18:38;;;;;;;28.88;20.02;;;;;;;10.01;44.05;101128.94;4963620;28;98986;-74
2021/01/27 01:21:06;;;;;;;31.90;20.70;;;;;;;10.00;43.47;101131.44;4964922;28;98078;-73
2021/01/27 01:23:33;;;;;;;31.52;22.00;;;;;;;9.96;43.86;101119.84;4967749;28;97395;-74
2021/01/27 01:26:01;;;;;;;28.17;20.27;;;;;;;9.95;43.46;101122.38;4965381;28;97700;-74
2021/01/27 01:28:28;;;;;;;27.55;19.65;;;;;;;9.91;44.25;101123.91;4946532;28;97733;-74
2021/01/27 01:30:56;;;;;;;30.40;19.90;;;;;;;9.90;44.04;101124.75;4966045;28;98639;-74
2021/01/27 01:33:27;;;;;;;31.80;20.17;;;;;;;9.82;43.56;101120.72;4961723;28;97882;-74
2021/01/27 01:35:55;;;;;;;29.73;19.92;;;;;;;9.77;43.73;101116.94;4943376;28;97405;-74
2021/01/27 01:38:23;;;;;;;32.45;20.95;;;;;;;9.71;43.92;101111.31;4959984;28;99227;-74
2021/01/27 01:40:53;;;;;;;28.58;20.50;;;;;;;9.68;43.99;101111.13;4963348;28;99096;-74
2021/01/27 01:43:40;;;;;;;32.30;20.95;;;;;;;9.65;43.74;101115.28;4963629;28;96858;-74
2021/01/27 01:46:13;;;;;;;29.63;19.95;;;;;;;9.63;44.22;101120.44;4966423;28;97479;-74
2021/01/27 01:48:44;;;;;;;29.00;19.65;;;;;;;9.58;44.31;101116.59;4962472;28;97674;-75
2021/01/27 01:51:15;;;;;;;31.97;21.17;;;;;;;9.55;44.03;101105.94;4966034;28;98486;-74
2021/01/27 01:53:43;;;;;;;30.58;19.73;;;;;;;9.53;44.25;101118.03;4966303;28;96913;-74
2021/01/27 01:56:32;;;;;;;30.67;20.45;;;;;;;9.50;44.90;101111.69;4962951;28;97974;-74
2021/01/27 01:59:01;;;;;;;31.83;20.52;;;;;;;9.49;44.24;101104.66;4966776;28;98579;-73
2021/01/27 02:01:29;;;;;;;31.17;20.60;;;;;;;9.49;44.33;101104.66;4970640;28;97750;-73
2021/01/27 02:03:59;;;;;;;31.40;20.35;;;;;;;9.50;44.73;101101.19;4975690;28;97872;-73
2021/01/27 02:06:26;;;;;;;29.88;20.25;;;;;;;9.49;44.87;101100.28;4973845;28;96839;-72
2021/01/27 02:08:57;;;;;;;31.05;20.08;;;;;;;9.45;44.33;101106.16;4965914;28;98825;-74
2021/01/27 02:11:32;;;;;;;31.63;20.20;;;;;;;9.47;44.78;101104.53;4963405;28;98414;-73
2021/01/27 02:14:17;;;;;;;29.65;20.35;;;;;;;9.49;44.59;101100.28;4952585;28;97448;-74
2021/01/27 02:16:50;;;;;;;28.73;20.33;;;;;;;9.56;44.33;101104.22;4963322;28;97233;-72
2021/01/27 02:19:46;;;;;;;31.37;18.97;;;;;;;9.60;44.67;101100.97;4969167;28;98625;-74
2021/01/27 02:22:28;;;;;;;30.10;20.40;;;;;;;9.63;44.29;101094.19;4960040;28;99374;-75
2021/01/27 02:25:18;;;;;;;32.53;19.98;;;;;;;9.64;44.45;101101.25;4969277;28;97219;-74
2021/01/27 02:27:47;;;;;;;30.42;20.42;;;;;;;9.66;44.29;101099.63;4962338;28;97185;-73
2021/01/27 02:30:24;;;;;;;28.87;20.70;;;;;;;9.68;44.44;101090.13;4971350;28;98299;-74
2021/01/27 02:33:12;;;;;;;30.77;20.90;;;;;;;9.67;43.70;101090.06;4965185;28;99212;-74
2021/01/27 02:36:04;;;;;;;28.35;19.63;;;;;;;9.66;43.56;101083.88;4960258;28;97627;-74
2021/01/27 02:38:34;;;;;;;30.10;20.67;;;;;;;9.65;44.22;101092.56;4970220;28;98672;-75
2021/01/27 02:41:05;;;;;;;29.80;20.75;;;;;;;9.66;43.87;101083.88;4961133;28;97889;-75
2021/01/27 02:43:35;;;;;;;31.88;21.15;;;;;;;9.70;43.82;101095.47;4968905;28;100305;-76
2021/01/27 02:46:05;;;;;;;31.25;21.13;;;;;;;9.71;44.14;101094.66;4962835;28;96962;-75
2021/01/27 02:48:37;;;;;;;30.88;20.73;;;;;;;9.68;43.51;101095.38;4969993;28;98821;-74
2021/01/27 02:51:08;;;;;;;30.92;20.83;;;;;;;9.63;43.75;101094.19;4969767;28;99169;-76
2021/01/27 02:53:39;;;;;;;30.27;20.05;;;;;;;9.64;43.66;101096.00;4962265;28;98004;-75
2021/01/27 02:56:13;;;;;;;32.70;20.52;;;;;;;9.64;44.07;101100.34;4961867;28;97957;-75
2021/01/27 02:58:44;;;;;;;29.92;20.02;;;;;;;9.64;43.64;101093.38;4969631;28;97729;-75
2021/01/27 03:01:17;;;;;;;33.78;21.27;;;;;;;9.62;43.70;101096.69;4956772;28;98090;-76
2021/01/27 03:03:49;;;;;;;31.05;20.70;;;;;;;9.58;43.23;101092.09;4964485;28;99686;-73
2021/01/27 03:06:18;;;;;;;22.08;15.63;;;;;;;9.41;43.73;101082.28;4967076;28;97104;-75
2021/01/27 03:08:52;;;;;;;25.63;15.88;;;;;;;9.31;44.12;101080.78;4975627;28;97029;-75
2021/01/27 03:11:22;;;;;;;24.38;13.95;;;;;;;9.26;44.33;101086.56;4973181;28;98124;-76
2021/01/27 03:13:50;;;;;;;24.52;14.30;;;;;;;9.16;44.32;101087.69;4972079;28;99280;-76
2021/01/27 03:16:21;;;;;;;22.55;14.52;;;;;;;9.10;44.05;101095.19;4976339;28;97035;-75
2021/01/27 03:18:56;;;;;;;30.52;19.90;;;;;;;9.18;44.19;101086.06;4971672;28;98177;-75
2021/01/27 03:21:26;;;;;;;25.40;15.13;;;;;;;9.07;44.46;101087.09;4970984;28;98514;-75
2021/01/27 03:23:57;;;;;;;21.00;14.38;;;;;;;9.02;44.34;101088.53;4973508;28;99280;-75
2021/01/27 03:26:27;;;;;;;30.17;20.65;;;;;;;9.06;44.80;101080.06;4967730;28;97245;-75
2021/01/27 03:28:57;;;;;;;34.30;20.90;;;;;;;9.09;44.80;101075.00;4974543;28;97970;-75
2021/01/27 03:31:25;;;;;;;31.87;21.50;;;;;;;9.14;43.96;101073.59;4978214;28;98965;-76
2021/01/27 03:33:57;;;;;;;31.23;20.80;;;;;;;9.21;44.52;101065.31;4962812;28;98280;-76
2021/01/27 03:36:27;;;;;;;33.10;21.13;;;;;;;9.26;44.59;101070.81;4961404;28;97410;-75
2021/01/27 03:38:55;;;;;;;30.75;21.65;;;;;;;9.29;44.12;101073.66;4964807;28;97382;-74
2021/01/27 03:41:24;;;;;;;32.25;21.85;;;;;;;9.31;44.42;101070.31;4962068;28;98193;-76
2021/01/27 03:44:00;;;;;;;31.10;20.30;;;;;;;9.31;43.99;101075.53;4966878;28;98431;-75
2021/01/27 03:46:32;;;;;;;32.67;21.52;;;;;;;9.32;44.74;101074.75;4965133;28;97877;-73
2021/01/27 03:49:03;;;;;;;33.42;21.48;;;;;;;9.33;44.75;101071.31;4963554;28;97578;-74
2021/01/27 03:51:38;;;;;;;31.25;21.20;;;;;;;9.39;44.77;101066.47;4969175;28;99606;-75
2021/01/27 03:54:10;;;;;;;28.92;20.63;;;;;;;9.44;44.68;101075.50;4970533;28;99247;-75
2021/01/27 03:56:40;;;;;;;31.38;21.55;;;;;;;9.49;44.79;101066.19;4965088;28;97063;-74
2021/01/27 03:59:09;;;;;;;31.42;21.60;;;;;;;9.53;44.72;101064.66;4968728;28;97520;-75
2021/01/27 04:01:45;;;;;;;32.72;22.67;;;;;;;9.57;44.36;101064.97;4963997;28;97892;-74
2021/01/27 04:04:13;;;;;;;27.20;16.58;;;;;;;9.49;44.36;101060.06;4973117;28;98169;-74
2021/01/27 04:06:41;;;;;;;30.27;20.67;;;;;;;9.58;44.28;101053.66;4968447;28;98073;-75
2021/01/27 04:09:09;;;;;;;34.83;21.80;;;;;;;9.62;44.26;101053.03;4972531;28;96869;-75
2021/01/27 04:11:36;;;;;;;33.20;21.98;;;;;;;9.63;44.21;101049.63;4951566;28;98725;-73
2021/01/27 04:14:04;;;;;;;32.47;21.88;;;;;;;9.67;44.40;101051.59;4971950;28;98511;-74
2021/01/27 04:16:31;;;;;;;27.65;16.40;;;;;;;9.60;44.33;101052.03;4976192;28;98914;-74
2021/01/27 04:19:00;;;;;;;22.48;14.10;;;;;;;9.55;44.32;101039.44;4967809;28;97155;-74
2021/01/27 04:21:28;;;;;;;28.63;15.57;;;;;;;9.51;44.49;101051.47;4968601;28;97566;-75
2021/01/27 04:23:57;;;;;;;30.67;19.73;;;;;;;9.58;44.21;101052.78;4967601;28;98084;-74
2021/01/27 04:26:24;;;;;;;32.17;20.90;;;;;;;9.66;44.25;101041.00;4964781;28;98788;-75
2021/01/27 04:28:52;;;;;;;22.55;14.45;;;;;;;9.57;43.98;101046.63;4968212;28;97271;-75
2021/01/27 04:31:19;;;;;;;22.58;14.35;;;;;;;9.51;44.52;101043.59;4968665;28;98470;-76
2021/01/27 04:33:48;;;;;;;25.48;14.23;;;;;;;9.46;43.98;101047.66;4965821;28;98698;-76
2021/01/27 04:36:15;;;;;;;20.23;12.40;;;;;;;9.43;44.24;101046.56;4963054;28;97149;-74
2021/01/27 04:38:43;;;;;;;28.77;19.90;;;;;;;9.49;44.47;101041.72;4968082;28;97858;-74
2021/01/27 04:41:12;;;;;;;30.77;19.95;;;;;;;9.50;44.17;101041.81;4962172;28;97650;-73
2021/01/27 04:43:41;;;;;;;28.63;19.75;;;;;;;9.49;44.74;101032.13;4963829;28;98087;-72
2021/01/27 04:46:13;;;;;;;23.42;15.10;;;;;;;9.41;44.43;101033.38;4968883;28;97403;-74
2021/01/27 04:49:01;;;;;;;26.20;18.00;;;;;;;9.50;44.20;101036.56;4966018;28;97991;-74
2021/01/27 04:51:35;;;;;;;28.60;19.38;;;;;;;9.53;44.70;101041.06;4967748;28;97602;-74
2021/01/27 04:54:25;;;;;;;26.27;15.75;;;;;;;9.41;44.53;101040.34;4964113;28;96907;-73
2021/01/27 04:57:00;;;;;;;21.55;12.95;;;;;;;9.38;43.95;101033.16;4965722;28;98020;-74
2021/01/27 04:59:37;;;;;;;26.63;18.40;;;;;;;9.45;43.91;101032.72;4965873;28;97303;-74
2021/01/27 05:02:16;;;;;;;20.08;13.27;;;;;;;9.38;44.14;101027.03;4955019;28;98378;-74
2021/01/27 05:04:49;;;;;;;18.40;13.05;;;;;;;9.32;44.56;101030.19;4959926;28;98004;-75
2021/01/27 05:07:21;;;;;;;25.50;18.48;;;;;;;9.42;44.26;101019.44;4963541;28;98069;-74
2021/01/27 05:09:55;;;;;;;26.25;18.17;;;;;;;9.52;44.07;101024.47;4966597;28;97192;-75
2021/01/27 05:12:26;;;;;;;21.80;15.48;;;;;;;9.47;44.05;101014.50;4971136;28;97543;-75
2021/01/27 05:14:54;;;;;;;24.90;16.87;;;;;;;9.58;44.35;101008.19;4964016;28;100318;-75
2021/01/27 05:17:21;;;;;;;26.20;17.52;;;;;;;9.62;44.17;101008.44;4970988;28;97211;-76
2021/01/27 05:19:50;;;;;;;23.33;13.95;;;;;;;9.56;44.31;101009.81;4964736;28;97453;-75
2021/01/27 05:22:17;;;;;;;19.85;13.25;;;;;;;9.49;44.21;101005.91;4968454;28;99079;-74
2021/01/27 05:25:05;;;;;;;24.45;16.30;;;;;;;9.58;43.63;101002.94;4968205;28;97438;-75
2021/01/27 05:27:35;;;;;;;23.97;16.53;;;;;;;9.62;43.58;101008.44;4960406;28;98991;-74
2021/01/27 05:30:06;;;;;;;21.88;16.10;;;;;;;9.65;43.01;101003.38;4974030;28;98831;-77
2021/01/27 05:32:48;;;;;;;18.90;12.00;;;;;;;9.56;43.37;101009.81;4966597;28;98438;-74
2021/01/27 05:35:26;;;;;;;17.92;11.40;;;;;;;9.50;43.84;101002.47;4969481;28;98153;-74
2021/01/27 05:37:54;;;;;;;18.70;12.45;;;;;;;9.47;44.05;101004.88;4969273;28;97832;-73
2021/01/27 05:40:34;;;;;;;18.48;11.50;;;;;;;9.44;43.69;101004.72;4966923;28;97168;-73
2021/01/27 05:43:13;;;;;;;17.73;11.38;;;;;;;9.44;43.99;101011.66;4966695;28;99281;-73
2021/01/27 05:45:42;;;;;;;16.75;11.02;;;;;;;9.37;43.67;101005.16;4966330;28;99834;-72
2021/01/27 05:48:14;;;;;;;18.65;11.55;;;;;;;9.34;44.24;101004.97;4962255;28;97400;-73
2021/01/27 05:50:42;;;;;;;17.77;11.43;;;;;;;9.35;43.88;101005.88;4964735;28;97311;-73
2021/01/27 05:53:11;;;;;;;22.17;15.70;;;;;;;9.43;44.32;100999.38;4964700;28;97948;-77
2021/01/27 05:56:01;;;;;;;22.65;16.27;;;;;;;9.47;44.18;101002.28;4971477;28;98930;-75
2021/01/27 05:58:31;;;;;;;15.70;11.85;;;;;;;9.42;43.79;101016.81;4966761;28;97776;-74
2021/01/27 06:01:19;;;;;;;23.13;15.90;;;;;;;9.52;44.01;101006.09;4977563;28;98015;-72
2021/01/27 06:03:54;;;;;;;22.33;16.05;;;;;;;9.57;43.73;101009.91;4954327;28;99529;-72
2021/01/27 06:06:22;;;;;;;17.63;12.95;;;;;;;9.55;43.30;101010.59;4972309;28;98435;-75
2021/01/27 06:08:55;;;;;;;19.38;12.43;;;;;;;9.50;44.12;101007.72;4961500;28;98824;-75
2021/01/27 06:11:23;;;;;;;19.35;12.93;;;;;;;9.50;43.97;101014.66;4971672;28;97483;-74
2021/01/27 06:14:11;;;;;;;18.33;11.05;;;;;;;9.48;43.56;101011.06;4971150;28;99095;-73
2021/01/27 06:16:45;;;;;;;24.25;16.73;;;;;;;9.52;43.85;101013.97;4980159;28;98201;-73
2021/01/27 06:19:15;;;;;;;18.80;12.63;;;;;;;9.48;43.68;101008.44;4967221;28;96995;-72
2021/01/27 06:22:06;;;;;;;23.33;16.95;;;;;;;9.59;43.92;100997.78;4968103;28;97401;-74
2021/01/27 06:24:41;;;;;;;24.40;16.13;;;;;;;9.60;44.01;101006.56;4964667;28;97454;-74
2021/01/27 06:27:24;;;;;;;23.23;17.00;;;;;;;9.66;43.72;100999.03;4961651;28;97353;-75
2021/01/27 06:30:10;;;;;;;24.58;16.20;;;;;;;9.70;43.61;101004.59;4963833;28;97810;-76
2021/01/27 06:33:09;;;;;;;23.75;16.05;;;;;;;9.68;43.05;101006.22;4962877;28;98085;-75
2021/01/27 06:38:53;;;;;;;23.77;15.57;;;;;;;9.64;43.52;101001.59;5101314;23;99444;-77
2021/01/27 06:41:33;;;;;;;25.13;17.20;;;;;;;9.67;43.59;100999.13;4887065;28;98981;-76
2021/01/27 06:44:11;;;;;;;24.53;17.00;;;;;;;9.68;43.21;101000.03;4900162;28;97102;-76
2021/01/27 06:47:03;;;;;;;23.20;16.93;;;;;;;9.71;43.05;100993.25;4894206;28;98034;-77
2021/01/27 06:50:03;;;;;;;26.93;18.00;;;;;;;9.75;42.83;100995.25;4882812;28;98839;-76
2021/01/27 06:53:09;;;;;;;25.52;17.40;;;;;;;9.82;42.74;100996.50;4880317;28;97259;-77
2021/01/27 06:55:48;;;;;;;28.10;18.37;;;;;;;9.84;42.59;100985.31;4882320;28;98174;-78
2021/01/27 06:58:42;;;;;;;27.13;18.77;;;;;;;9.90;42.96;100996.19;4880654;28;97951;-77
2021/01/27 07:01:25;;;;;;;24.23;16.98;;;;;;;9.92;43.37;100989.31;4878446;28;99007;-77
2021/01/27 07:04:17;;;;;;;26.65;18.23;;;;;;;9.98;42.14;100987.00;4881656;28;97006;-76
2021/01/27 07:07:17;;;;;;;28.20;18.67;;;;;;;9.97;42.89;100986.94;4880861;28;97660;-78
2021/01/27 07:10:13;;;;;;;29.98;19.75;;;;;;;10.03;42.77;100982.06;4861205;28;99276;-74
2021/01/27 07:12:42;;;;;;;26.23;18.73;;;;;;;10.02;42.01;100982.84;4878814;28;98352;-76
2021/01/27 07:15:41;;;;;;;32.67;19.67;;;;;;;10.01;42.52;100979.34;4880628;28;97890;-73
2021/01/27 07:18:30;;;;;;;30.23;20.17;;;;;;;10.03;42.26;100980.34;4874145;28;97727;-73
2021/01/27 07:21:02;;;;;;;29.88;20.40;;;;;;;10.04;41.92;100983.84;4861171;28;98830;-73
2021/01/27 07:23:35;;;;;;;29.25;19.92;;;;;;;10.08;42.36;100989.38;4879099;28;98063;-76
2021/01/27 07:26:09;;;;;;;29.05;19.38;;;;;;;10.11;42.08;100979.06;4879600;28;96859;-74
2021/01/27 07:28:46;;;;;;;32.77;19.73;;;;;;;10.14;42.29;100981.88;4880671;28;97511;-73
2021/01/27 07:31:17;;;;;;;27.38;19.17;;;;;;;10.14;42.39;100976.63;4862738;28;97940;-75
2021/01/27 07:33:50;;;;;;;31.90;21.05;;;;;;;10.17;41.63;100981.16;4859924;28;98321;-76
2021/01/27 07:36:39;;;;;;;31.40;20.43;;;;;;;10.23;41.66;100980.59;4873349;28;97630;-75
2021/01/27 07:39:12;;;;;;;32.43;20.70;;;;;;;10.23;41.88;100965.78;4861757;28;98267;-76
2021/01/27 07:41:45;;;;;;;32.10;21.17;;;;;;;10.26;42.25;100970.25;4859045;28;99052;-76
2021/01/27 07:44:15;;;;;;;33.00;22.05;;;;;;;10.29;41.83;100971.38;4875213;28;98866;-77
2021/01/27 07:46:47;;;;;;;32.27;21.60;;;;;;;10.30;41.37;100977.50;4860405;28;98059;-77
2021/01/27 07:49:16;;;;;;;33.42;21.40;;;;;;;10.34;41.93;100975.16;4861303;28;97345;-77
2021/01/27 07:51:49;;;;;;;32.33;21.65;;;;;;;10.35;41.35;100973.41;4879945;28;99051;-76
2021/01/27 07:54:22;;;;;;;31.83;21.83;;;;;;;10.40;41.21;100969.34;4865598;28;98110;-77
2021/01/27 07:56:54;;;;;;;28.77;20.67;;;;;;;10.42;41.93;100970.34;4883694;28;97886;-78
2021/01/27 07:59:26;;;;;;;30.03;21.13;;;;;;;10.45;41.77;100971.44;4884040;28;98062;-79
2021/01/27 08:01:57;;;;;;;29.63;20.77;;;;;;;10.43;42.18;100961.63;4869020;28;98146;-77
2021/01/27 08:04:32;;;;;;;30.33;21.30;;;;;;;10.42;40.94;100962.47;4883832;28;98061;-76
2021/01/27 08:07:02;;;;;;;32.10;21.77;;;;;;;10.44;41.31;100966.09;4882940;28;98738;-76
2021/01/27 08:09:32;;;;;;;32.25;22.48;;;;;;;10.47;41.59;100963.63;4885845;28;97564;-77
2021/01/27 08:12:11;;;;;;;31.07;21.43;;;;;;;10.51;41.51;100957.72;4885044;28;99529;-76
2021/01/27 08:14:59;;;;;;;31.88;21.95;;;;;;;10.56;41.52;100956.25;4879896;28;98936;-76
2021/01/27 08:17:51;;;;;;;32.80;21.30;;;;;;;10.57;41.48;100961.59;4879021;28;96881;-76
2021/01/27 08:20:23;;;;;;;34.03;21.90;;;;;;;10.61;41.12;100957.41;4884469;28;97308;-81
2021/01/27 08:22:53;;;;;;;31.10;22.03;;;;;;;10.68;41.35;100963.09;4881142;28;98156;-77
2021/01/27 08:25:52;;;;;;;33.75;22.63;;;;;;;10.72;40.91;100964.16;4882856;28;99007;-76
2021/01/27 08:28:27;;;;;;;22.65;16.10;;;;;;;10.66;41.05;100963.81;4873351;28;97554;-77
2021/01/27 08:31:23;;;;;;;30.38;20.73;;;;;;;10.75;41.54;100959.06;4864115;28;98283;-76
2021/01/27 08:33:53;;;;;;;30.17;22.10;;;;;;;10.79;40.58;100961.06;4862175;28;98272;-78
2021/01/27 08:36:23;;;;;;;32.25;21.58;;;;;;;10.80;40.92;100953.25;4878157;28;98852;-78
2021/01/27 08:39:07;;;;;;;25.88;17.42;;;;;;;10.72;41.26;100949.31;4859903;28;98644;-76
2021/01/27 08:41:42;;;;;;;23.67;15.75;;;;;;;10.68;41.53;100954.28;4875473;28;98862;-79
2021/01/27 08:44:11;;;;;;;20.30;14.55;;;;;;;10.63;42.00;100954.06;4875212;28;98064;-77
2021/01/27 08:46:43;;;;;;;22.35;14.85;;;;;;;10.61;41.30;100949.53;4871877;28;98367;-76
2021/01/27 08:49:12;;;;;;;26.90;15.23;;;;;;;10.61;41.96;100952.16;4874959;28;98113;-76
2021/01/27 08:51:48;;;;;;;30.15;21.02;;;;;;;10.70;40.93;100948.31;4874199;28;97902;-76
2021/01/27 08:54:48;;;;;;;29.52;21.40;;;;;;;10.75;41.37;100938.97;4871381;28;99083;-78
2021/01/27 08:57:25;;;;;;;30.10;21.23;;;;;;;10.80;40.61;100936.59;4855742;28;97879;-78
2021/01/27 08:59:55;;;;;;;29.50;21.00;;;;;;;10.84;41.04;100928.03;4873771;28;98320;-76
2021/01/27 09:02:47;;;;;;;30.52;21.23;;;;;;;10.87;40.50;100925.59;4873554;28;97877;-76
2021/01/27 09:05:41;;;;;;;23.05;15.68;;;;;;;10.83;40.86;100923.63;4875346;28;98010;-78
2021/01/27 09:08:27;;;;;;;23.63;15.75;;;;;;;10.79;41.17;100912.03;4874644;28;97810;-73
2021/01/27 09:10:57;;;;;;;22.30;15.13;;;;;;;10.71;41.21;100909.81;4874215;28;98143;-77
2021/01/27 09:13:33;;;;;;;27.57;19.93;;;;;;;10.74;41.09;100908.28;4857058;28;97695;-75
2021/01/27 09:16:03;;;;;;;33.28;21.73;;;;;;;10.82;41.44;100913.94;4873056;28;98038;-74
2021/01/27 09:18:31;;;;;;;32.00;22.45;;;;;;;10.85;40.98;100914.09;4874673;28;99564;-76
2021/01/27 09:21:04;;;;;;;30.63;22.57;;;;;;;10.89;40.51;100909.06;4873960;28;99885;-75
2021/01/27 09:23:31;;;;;;;33.30;22.73;;;;;;;10.95;41.17;100911.13;4873706;28;97940;-77
2021/01/27 09:26:03;;;;;;;30.02;22.60;;;;;;;11.03;41.12;100915.06;4873985;28;99037;-78
2021/01/27 09:28:33;;;;;;;27.20;18.48;;;;;;;11.02;41.20;100913.28;4857442;28;100858;-74
2021/01/27 09:31:12;;;;;;;29.02;19.48;;;;;;;11.00;41.33;100917.56;4874982;28;97742;-74
2021/01/27 09:33:40;;;;;;;25.80;17.30;;;;;;;11.00;41.04;100909.66;4875306;28;97278;-74
2021/01/27 09:36:10;;;;;;;23.35;18.20;;;;;;;10.99;41.28;100920.97;4874194;28;98171;-74
2021/01/27 09:38:38;;;;;;;23.90;17.65;;;;;;;10.97;41.00;100914.75;4872073;28;98677;-76
2021/01/27 09:41:09;;;;;;;21.42;16.02;;;;;;;10.95;41.38;100909.41;4876029;28;99327;-78
2021/01/27 09:43:39;;;;;;;19.02;14.43;;;;;;;10.92;40.97;100916.22;4875430;28;98506;-75
2021/01/27 09:46:25;;;;;;;17.05;13.98;;;;;;;10.85;40.72;100919.34;4874379;28;99139;-78
2021/01/27 09:48:55;;;;;;;18.38;13.55;;;;;;;10.75;40.93;100927.53;4874337;28;100007;-78
2021/01/27 09:51:23;;;;;;;18.02;13.40;;;;;;;10.71;41.80;100926.47;4876578;28;97843;-76
2021/01/27 09:53:55;;;;;;;20.17;13.18;;;;;;;10.67;41.48;100919.25;4873795;28;97548;-76
2021/01/27 09:56:24;;;;;;;21.30;13.63;;;;;;;10.67;41.95;100929.78;4874940;28;101616;-79
2021/01/27 09:58:52;;;;;;;18.30;13.02;;;;;;;10.59;41.69;100915.31;4873575;28;98956;-77
2021/01/27 10:01:21;;;;;;;16.20;12.40;;;;;;;10.58;42.04;100912.59;4859549;28;98259;-75
2021/01/27 10:03:49;;;;;;;17.70;12.30;;;;;;;10.61;41.46;100912.75;4875567;28;97298;-77
2021/01/27 10:06:35;;;;;;;20.52;13.32;;;;;;;10.57;41.59;100911.69;4855343;28;100432;-77
2021/01/27 10:09:07;;;;;;;14.70;11.95;;;;;;;10.56;41.20;100906.34;4873221;28;98765;-77
2021/01/27 10:11:36;;;;;;;17.98;13.02;;;;;;;10.58;41.25;100903.00;4854926;28;98217;-78
2021/01/27 10:14:06;;;;;;;16.48;12.20;;;;;;;10.58;41.47;100897.75;4873172;28;98693;-74
2021/01/27 10:16:34;;;;;;;24.02;16.85;;;;;;;10.66;41.61;100895.50;4871788;28;99457;-76
2021/01/27 10:19:05;;;;;;;22.70;17.97;;;;;;;10.75;40.97;100890.75;4872592;28;99136;-74
2021/01/27 10:21:42;;;;;;;22.57;18.57;;;;;;;10.81;40.72;100888.47;4855043;28;98632;-75
2021/01/27 10:24:10;;;;;;;18.33;14.00;;;;;;;10.77;40.92;100891.75;4857791;28;97985;-75
2021/01/27 10:26:40;;;;;;;16.13;12.77;;;;;;;10.76;40.66;100882.97;4874549;28;99468;-75
2021/01/27 10:29:31;;;;;;;15.95;12.15;;;;;;;10.75;40.93;100890.75;4870858;28;99717;-75
2021/01/27 10:32:18;;;;;;;15.40;11.63;;;;;;;10.73;40.01;100885.41;4879389;28;97817;-78
2021/01/27 10:34:46;;;;;;;16.35;11.63;;;;;;;10.74;41.54;100878.44;4877782;28;98078;-75
2021/01/27 10:37:43;;;;;;;15.32;11.82;;;;;;;10.77;40.68;100879.53;4878238;28;98006;-80
2021/01/27 10:40:16;;;;;;;14.90;11.43;;;;;;;10.80;41.11;100871.78;4847007;28;97880;-79
2021/01/27 10:42:46;;;;;;;14.55;11.90;;;;;;;10.86;41.12;100873.84;4878895;28;97932;-76
2021/01/27 10:45:29;;;;;;;15.23;11.93;;;;;;;10.87;40.27;100881.84;4874861;28;97624;-79
2021/01/27 10:48:00;;;;;;;13.07;11.63;;;;;;;10.86;41.08;100887.91;4871781;28;99354;-76
2021/01/27 10:50:28;;;;;;;14.23;11.43;;;;;;;10.88;40.94;100873.13;4871959;28;98177;-79
2021/01/27 10:53:04;;;;;;;16.35;11.77;;;;;;;10.85;40.87;100867.72;4874438;28;98047;-75
2021/01/27 10:55:33;;;;;;;15.65;12.32;;;;;;;10.92;41.14;100868.91;4874650;28;98123;-76
2021/01/27 10:58:06;;;;;;;12.75;11.38;;;;;;;10.91;40.35;100875.00;4881612;28;98961;-79
2021/01/27 11:00:34;;;;;;;14.77;11.55;;;;;;;10.99;41.00;100876.31;4869476;28;98619;-79
2021/01/27 11:03:01;;;;;;;17.45;11.13;;;;;;;11.04;40.35;100861.66;4851120;28;97595;-79
2021/01/27 11:05:30;;;;;;;13.20;10.30;;;;;;;11.11;40.76;100861.19;4865619;28;97408;-79
2021/01/27 11:07:58;;;;;;;14.77;10.80;;;;;;;11.14;40.59;100857.00;4863603;28;99654;-80
2021/01/27 11:10:25;;;;;;;12.38;10.35;;;;;;;11.12;40.19;100850.75;4883603;28;98399;-81
2021/01/27 11:12:53;;;;;;;13.77;11.15;;;;;;;11.14;40.59;100857.00;4886531;28;97061;-79
2021/01/27 11:15:22;;;;;;;12.70;11.23;;;;;;;11.13;40.60;100854.28;4881393;28;98222;-80
2021/01/27 11:17:50;;;;;;;13.32;10.57;;;;;;;11.08;40.44;100855.75;4880406;28;99453;-78
2021/01/27 11:20:20;;;;;;;13.63;10.70;;;;;;;11.04;40.33;100853.78;4864154;28;99581;-80
2021/01/27 11:22:47;;;;;;;11.85;10.65;;;;;;;11.04;40.63;100856.41;4875325;28;97462;-78
2021/01/27 11:25:16;;;;;;;13.05;10.20;;;;;;;11.07;40.42;100853.97;4862430;28;99318;-79
2021/01/27 11:27:44;;;;;;;13.30;10.70;;;;;;;11.12;40.64;100856.00;4875617;28;99195;-78
2021/01/27 11:30:13;;;;;;;12.65;10.70;;;;;;;11.15;40.35;100843.00;4877047;28;97828;-81
2021/01/27 11:32:41;;;;;;;11.15;9.55;;;;;;;11.19;40.27;100838.81;4864441;28;97865;-80
2021/01/27 11:35:10;;;;;;;12.48;9.60;;;;;;;11.21;40.03;100826.66;4877832;28;98622;-79
2021/01/27 11:37:37;;;;;;;10.07;9.02;;;;;;;11.25;40.32;100818.09;4878055;28;97906;-82
2021/01/27 11:40:06;;;;;;;14.50;12.18;;;;;;;11.34;39.89;100817.66;4862524;28;98894;-80
2021/01/27 11:42:33;;;;;;;18.08;13.00;;;;;;;11.45;39.39;100811.19;4883889;28;97288;-79
2021/01/27 11:45:03;;;;;;;15.93;10.68;;;;;;;11.52;39.83;100806.31;4863221;28;98442;-80
2021/01/27 11:47:30;;;;;;;13.63;10.20;;;;;;;11.56;39.13;100808.28;4885348;28;96982;-80